Cinderella 1 — SBLK — position and weather

sailwx.info

Track history (hours):
 
Tides and Currents Weather Stations Pressure Air Temp Water Temp Dewpoint Dewpoint Depression Visibility Wind Speed Wind Dir Waves Ship Positions

Cinderella 1

Last reported at 2017-Dec-11 17:01 UTC. Time now 2017-Dec-13 17:01 UTC.
Position N 59°20' E 018°05'.

Length 42 m; draft 1.1 m.

Type: Passenger vessel. MMSI: 265524530.

Date/timePositionNaut miles runAvg speedWind from/ knotsBaromVisibWave heightAir tempDewpointWater temp
2017-Dec-11 17:01N 59°20' E 018°05'0 0.0
2017-Dec-11 16:31N 59°20' E 018°05'0 0.0
2017-Dec-11 16:01N 59°20' E 018°05'0 0.0
2017-Dec-11 15:30N 59°20' E 018°05'0 0.0
2017-Dec-11 15:00N 59°20' E 018°05'0 0.0
2017-Dec-11 14:31N 59°20' E 018°05'0 0.0
2017-Dec-11 14:01N 59°20' E 018°05'0 0.0
2017-Dec-11 13:31N 59°20' E 018°05'0 0.0
2017-Dec-11 13:00N 59°20' E 018°05'0 0.0
2017-Dec-11 12:30N 59°20' E 018°05'0 0.1
2017-Dec-11 12:00N 59°20' E 018°05'0 0.1
2017-Dec-11 11:30N 59°20' E 018°05'0 0.0
2017-Dec-11 11:00N 59°20' E 018°05'0 0.0
2017-Dec-11 10:31N 59°20' E 018°05'0 0.0
2017-Dec-11 10:01N 59°20' E 018°05'0 0.0
2017-Dec-11 09:31N 59°20' E 018°05'0 0.0
2017-Dec-11 09:01N 59°20' E 018°05'0 0.0
2017-Dec-11 08:30N 59°20' E 018°05'0 0.0
2017-Dec-11 08:00N 59°20' E 018°05'0 0.0
2017-Dec-11 07:31N 59°20' E 018°05'0 0.0
2017-Dec-11 07:01N 59°20' E 018°05'0 0.0
2017-Dec-11 06:30N 59°20' E 018°05'0 0.0
2017-Dec-11 06:01N 59°20' E 018°05'0 0.0
2017-Dec-11 05:30N 59°20' E 018°05'0 0.0
2017-Dec-11 05:01N 59°20' E 018°05'0 0.0
2017-Dec-11 04:30N 59°20' E 018°05'0 0.0
2017-Dec-11 04:01N 59°20' E 018°05'0 0.0
2017-Dec-11 03:31N 59°20' E 018°05'0 0.0
2017-Dec-11 03:00N 59°20' E 018°05'0 0.0
2017-Dec-11 02:31N 59°20' E 018°05'0 0.0
2017-Dec-11 02:01N 59°20' E 018°05'0 0.0
2017-Dec-11 01:31N 59°20' E 018°05'0 0.0
2017-Dec-11 01:00N 59°20' E 018°05'0 0.0
2017-Dec-11 00:30N 59°20' E 018°05'0 0.0
2017-Dec-11 00:00N 59°20' E 018°05'0 0.0
2017-Dec-10 23:30N 59°20' E 018°05'0 0.0
2017-Dec-10 23:00N 59°20' E 018°05'0 0.0
2017-Dec-10 22:31N 59°20' E 018°05'0 0.0
2017-Dec-10 22:01N 59°20' E 018°05'0 0.0
2017-Dec-10 21:30N 59°20' E 018°05'0 0.0
2017-Dec-10 21:01N 59°20' E 018°05'0 0.0
2017-Dec-10 20:31N 59°20' E 018°05'0 0.0
2017-Dec-10 20:01N 59°20' E 018°05'0 0.0
2017-Dec-10 19:31N 59°20' E 018°05'0 0.0
2017-Dec-10 19:00N 59°20' E 018°05'0 0.0
2017-Dec-10 18:29N 59°20' E 018°05'2 5.1
2017-Dec-10 18:00N 59°19' E 018°09'2 3.9
2017-Dec-10 17:30N 59°19' E 018°06'1 1.3
2017-Dec-10 17:01N 59°20' E 018°05'0 0.0
2017-Dec-10 16:30N 59°20' E 018°05'510.1
2017-Dec-10 16:00N 59°21' E 018°14'5 8.1
2017-Dec-10 15:27N 59°24' E 018°21'715.9
2017-Dec-10 15:00N 59°20' E 018°11'3 5.9
2017-Dec-10 14:30N 59°20' E 018°05'0 0.2
2017-Dec-10 14:00N 59°20' E 018°05'510.9
2017-Dec-10 13:30N 59°21' E 018°15'3 4.0
2017-Dec-10 12:41N 59°23' E 018°20'316.1
2017-Dec-10 12:31N 59°22' E 018°16'611.8
2017-Dec-10 12:01N 59°20' E 018°05'0 0.1
2017-Dec-10 11:30N 59°20' E 018°05'3 5.8
2017-Dec-10 11:01N 59°20' E 018°10'3 5.7
2017-Dec-10 10:30N 59°20' E 018°05'0 0.0
2017-Dec-10 10:00N 59°20' E 018°05'0 0.0
2017-Dec-10 09:30N 59°20' E 018°05'0 0.0
2017-Dec-10 09:00N 59°20' E 018°05'0 0.0
2017-Dec-10 08:30N 59°20' E 018°05'0 0.0
2017-Dec-10 08:00N 59°20' E 018°05'0 0.0
2017-Dec-10 07:30N 59°20' E 018°05'0 0.0
2017-Dec-10 07:00N 59°20' E 018°05'0 0.0
2017-Dec-10 06:30N 59°20' E 018°05'0 0.0
2017-Dec-10 06:00N 59°20' E 018°05'0 0.0
2017-Dec-10 05:30N 59°20' E 018°05'0 0.0
2017-Dec-10 05:00N 59°20' E 018°05'0 0.0
2017-Dec-10 04:30N 59°20' E 018°05'0 0.0
2017-Dec-10 04:00N 59°20' E 018°05'0 0.0
2017-Dec-10 03:30N 59°20' E 018°05'0 0.0
2017-Dec-10 03:00N 59°20' E 018°05'0 0.0
2017-Dec-10 02:30N 59°20' E 018°05'0 0.0
2017-Dec-10 02:00N 59°20' E 018°05'0 0.0
2017-Dec-10 01:30N 59°20' E 018°05'0 0.0
2017-Dec-10 01:00N 59°20' E 018°05'0 0.0
2017-Dec-10 00:30N 59°20' E 018°05'0 0.0
2017-Dec-10 00:00N 59°20' E 018°05'0 0.0
2017-Dec-09 23:30N 59°20' E 018°05'0 0.0
2017-Dec-09 23:00N 59°20' E 018°05'0 0.0
2017-Dec-09 22:30N 59°20' E 018°05'1 2.3
2017-Dec-09 22:00N 59°19' E 018°06'8 2.0
2017-Dec-09 17:56N 59°23' E 018°20'717.5
2017-Dec-09 17:31N 59°19' E 018°08'2 4.1
2017-Dec-09 17:01N 59°20' E 018°05'0 0.0
2017-Dec-09 16:31N 59°20' E 018°05'4 8.1
2017-Dec-09 16:01N 59°20' E 018°13'5 6.6
2017-Dec-09 15:17N 59°23' E 018°20'622.3
2017-Dec-09 15:00N 59°20' E 018°11'3 5.9
2017-Dec-09 14:30N 59°20' E 018°05'1 2.0
2017-Dec-09 14:00N 59°19' E 018°06'816.1
2017-Dec-09 13:31N 59°23' E 018°20'1 2.4
2017-Dec-09 12:54N 59°24' E 018°21'3 7.8
2017-Dec-09 12:30N 59°22' E 018°16'612.8
2017-Dec-09 12:00N 59°20' E 018°05'0 0.0
2017-Dec-09 11:30N 59°20' E 018°05'0 0.0
2017-Dec-09 11:00N 59°20' E 018°05'0 0.0
2017-Dec-09 10:30N 59°20' E 018°05'0 0.0
2017-Dec-09 10:00N 59°20' E 018°05'0 0.0
2017-Dec-09 09:30N 59°20' E 018°05'0 0.0
2017-Dec-09 09:00N 59°20' E 018°05'0 0.0
2017-Dec-09 08:30N 59°20' E 018°05'0 0.0
2017-Dec-09 08:00N 59°20' E 018°05'0 0.0
2017-Dec-09 07:30N 59°20' E 018°05'0 0.0
2017-Dec-09 07:00N 59°20' E 018°05'0 0.0
2017-Dec-09 06:30N 59°20' E 018°05'0 0.0
2017-Dec-09 06:00N 59°20' E 018°05'0 0.0
2017-Dec-09 05:30N 59°20' E 018°05'0 0.0
2017-Dec-09 05:00N 59°20' E 018°05'0 0.0
2017-Dec-09 04:30N 59°20' E 018°05'0 0.0
2017-Dec-09 04:00N 59°20' E 018°05'0 0.0
2017-Dec-09 03:30N 59°20' E 018°05'0 0.0
2017-Dec-09 03:00N 59°20' E 018°05'0 0.0
2017-Dec-09 02:30N 59°20' E 018°05'0 0.0
2017-Dec-09 02:00N 59°20' E 018°05'0 0.0
2017-Dec-09 01:30N 59°20' E 018°05'0 0.0
2017-Dec-09 01:00N 59°20' E 018°05'0 0.0
2017-Dec-09 00:30N 59°20' E 018°05'0 0.0
2017-Dec-09 00:00N 59°20' E 018°05'0 0.0
2017-Dec-08 23:30N 59°20' E 018°05'0 0.0
2017-Dec-08 23:00N 59°20' E 018°05'0 0.0
2017-Dec-08 22:30N 59°20' E 018°05'2 3.0
2017-Dec-08 22:00N 59°19' E 018°07'815.7
2017-Dec-08 21:28N 59°24' E 018°21'0 0.1
2017-Dec-08 18:17N 59°24' E 018°21'1 3.1
2017-Dec-08 17:57N 59°23' E 018°20'817.2
2017-Dec-08 17:30N 59°19' E 018°08'2 3.7
2017-Dec-08 17:00N 59°20' E 018°05'0 0.0
2017-Dec-08 16:30N 59°20' E 018°05'4 7.9
2017-Dec-08 16:01N 59°20' E 018°12'5 6.8
2017-Dec-08 15:16N 59°23' E 018°20'622.3
2017-Dec-08 15:01N 59°20' E 018°11'3 6.5
2017-Dec-08 14:31N 59°20' E 018°05'0 0.1
2017-Dec-08 14:00N 59°20' E 018°05'4 8.3
2017-Dec-08 13:30N 59°20' E 018°13'610.2
2017-Dec-08 12:56N 59°24' E 018°21'3 6.7
2017-Dec-08 12:30N 59°22' E 018°17'713.4
2017-Dec-08 12:01N 59°20' E 018°05'0 0.1
2017-Dec-08 11:30N 59°20' E 018°05'3 5.1
2017-Dec-08 11:00N 59°19' E 018°10'3 5.1
2017-Dec-08 10:31N 59°20' E 018°05'0 0.0
2017-Dec-08 10:00N 59°20' E 018°05'0 0.0
2017-Dec-08 09:30N 59°20' E 018°05'0 0.0
2017-Dec-08 09:00N 59°20' E 018°05'0 0.0
2017-Dec-08 08:30N 59°20' E 018°05'0 0.0
2017-Dec-08 08:00N 59°20' E 018°05'0 0.0
2017-Dec-08 07:30N 59°20' E 018°05'0 0.1
2017-Dec-08 07:00N 59°20' E 018°05'0 0.1
2017-Dec-08 06:30N 59°20' E 018°05'0 0.0
2017-Dec-08 06:00N 59°20' E 018°05'0 0.0
2017-Dec-08 05:30N 59°20' E 018°05'0 0.0
2017-Dec-08 05:00N 59°20' E 018°05'0 0.0
2017-Dec-08 04:30N 59°20' E 018°05'0 0.0
2017-Dec-08 04:00N 59°20' E 018°05'0 0.0
2017-Dec-08 03:30N 59°20' E 018°05'0 0.0
2017-Dec-08 03:00N 59°20' E 018°05'0 0.0
2017-Dec-08 02:30N 59°20' E 018°05'0 0.0
2017-Dec-08 02:00N 59°20' E 018°05'0 0.0
2017-Dec-08 01:30N 59°20' E 018°05'0 0.0
2017-Dec-08 01:00N 59°20' E 018°05'0 0.0
2017-Dec-08 00:30N 59°20' E 018°05'0 0.0
2017-Dec-08 00:00N 59°20' E 018°05'0 0.0
2017-Dec-07 23:30N 59°20' E 018°05'0 0.0
2017-Dec-07 23:00N 59°20' E 018°05'0 0.0
2017-Dec-07 22:30N 59°20' E 018°05'0 0.9
2017-Dec-07 22:00N 59°20' E 018°05'714.5
2017-Dec-07 21:30N 59°23' E 018°18'2 0.7
2017-Dec-07 18:14N 59°24' E 018°21'1 2.7
2017-Dec-07 17:57N 59°23' E 018°20'716.8
2017-Dec-07 17:30N 59°19' E 018°09'2 4.6
2017-Dec-07 17:00N 59°20' E 018°05'0 0.0
2017-Dec-07 16:30N 59°20' E 018°05'3 5.4
2017-Dec-07 16:01N 59°19' E 018°10'812.0
2017-Dec-07 15:23N 59°24' E 018°21'616.1
2017-Dec-07 15:01N 59°20' E 018°12'4 7.6
2017-Dec-07 14:30N 59°20' E 018°05'0 0.4
2017-Dec-07 14:00N 59°20' E 018°05'510.3
2017-Dec-07 13:31N 59°21' E 018°15'5 8.3
2017-Dec-07 12:57N 59°24' E 018°21'3 7.8
2017-Dec-07 12:30N 59°22' E 018°16'612.3
2017-Dec-07 12:00N 59°20' E 018°05'0 0.0
2017-Dec-07 11:30N 59°20' E 018°05'0 0.0
2017-Dec-07 11:00N 59°20' E 018°05'0 0.0
2017-Dec-07 10:30N 59°20' E 018°05'0 0.0
2017-Dec-07 10:01N 59°20' E 018°05'0 0.0
2017-Dec-07 09:31N 59°20' E 018°05'0 0.0
2017-Dec-07 09:00N 59°20' E 018°05'0 0.0
2017-Dec-07 08:30N 59°20' E 018°05'0 0.0
2017-Dec-07 08:01N 59°20' E 018°05'0 0.0
2017-Dec-07 07:30N 59°20' E 018°05'0 0.0
2017-Dec-07 07:00N 59°20' E 018°05'0 0.0
2017-Dec-07 06:30N 59°20' E 018°05'0 0.0
2017-Dec-07 06:01N 59°20' E 018°05'0 0.0
2017-Dec-07 05:30N 59°20' E 018°05'0 0.0
2017-Dec-07 05:00N 59°20' E 018°05'0 0.0
2017-Dec-07 04:31N 59°20' E 018°05'0 0.0
2017-Dec-07 04:01N 59°20' E 018°05'0 0.0
2017-Dec-07 03:30N 59°20' E 018°05'0 0.0
2017-Dec-07 03:01N 59°20' E 018°05'0 0.0
2017-Dec-07 02:31N 59°20' E 018°05'0 0.0
2017-Dec-07 02:00N 59°20' E 018°05'0 0.0
2017-Dec-07 01:30N 59°20' E 018°05'0 0.0
2017-Dec-07 01:01N 59°20' E 018°05'0 0.0
2017-Dec-07 00:30N 59°20' E 018°05'0 0.0
2017-Dec-07 00:01N 59°20' E 018°05'0 0.0
2017-Dec-06 23:30N 59°20' E 018°05'0 0.0
2017-Dec-06 23:00N 59°20' E 018°05'0 0.0
2017-Dec-06 22:31N 59°20' E 018°05'0 0.4
2017-Dec-06 22:00N 59°20' E 018°05'713.6
2017-Dec-06 21:30N 59°23' E 018°17'  
2017-Dec-04 10:31N 59°20' E 018°05'0 0.0
2017-Dec-04 10:00N 59°20' E 018°05'0 0.0
2017-Dec-04 09:30N 59°20' E 018°05'0 0.0
2017-Dec-04 09:00N 59°20' E 018°05'0 0.0
2017-Dec-04 08:30N 59°20' E 018°05'0 0.0
2017-Dec-04 08:01N 59°20' E 018°05'0 0.0
2017-Dec-04 07:30N 59°20' E 018°05'0 0.0
2017-Dec-04 07:01N 59°20' E 018°05'0 0.0
2017-Dec-04 06:30N 59°20' E 018°05'0 0.0
2017-Dec-04 06:01N 59°20' E 018°05'0 0.0
2017-Dec-04 05:31N 59°20' E 018°05'0 0.0
2017-Dec-04 05:01N 59°20' E 018°05'0 0.0
2017-Dec-04 04:31N 59°20' E 018°05'0 0.0
2017-Dec-04 04:01N 59°20' E 018°05'0 0.0
2017-Dec-04 03:31N 59°20' E 018°05'0 0.0
2017-Dec-04 03:00N 59°20' E 018°05'0 0.0
2017-Dec-04 02:31N 59°20' E 018°05'0 0.0
2017-Dec-04 02:00N 59°20' E 018°05'0 0.0
2017-Dec-04 01:31N 59°20' E 018°05'0 0.0
2017-Dec-04 01:00N 59°20' E 018°05'0 0.0
2017-Dec-04 00:31N 59°20' E 018°05'0 0.0
2017-Dec-04 00:01N 59°20' E 018°05'0 0.0
2017-Dec-03 23:30N 59°20' E 018°05'0 0.0
2017-Dec-03 23:01N 59°20' E 018°05'0 0.0
2017-Dec-03 22:30N 59°20' E 018°05'0 0.0
2017-Dec-03 22:01N 59°20' E 018°05'0 0.0
2017-Dec-03 21:30N 59°20' E 018°05'0 0.0
2017-Dec-03 21:01N 59°20' E 018°05'0 0.0
2017-Dec-03 20:31N 59°20' E 018°05'0 0.0
2017-Dec-03 20:01N 59°20' E 018°05'0 0.0
2017-Dec-03 19:30N 59°20' E 018°05'0 0.0
2017-Dec-03 19:00N 59°20' E 018°05'0 0.0
2017-Dec-03 18:30N 59°20' E 018°05'3 5.8
2017-Dec-03 18:00N 59°20' E 018°10'2 4.5
2017-Dec-03 17:30N 59°19' E 018°06'1 2.2
2017-Dec-03 17:00N 59°20' E 018°05'0 0.0
2017-Dec-03 16:30N 59°20' E 018°05'510.1
2017-Dec-03 16:00N 59°21' E 018°14'5 8.7
2017-Dec-03 15:28N 59°24' E 018°22'715.5
2017-Dec-03 15:01N 59°20' E 018°11'3 6.2
2017-Dec-03 14:30N 59°20' E 018°05'0 0.2
2017-Dec-03 14:00N 59°20' E 018°05'510.6
2017-Dec-03 13:30N 59°21' E 018°15'4 8.2
2017-Dec-03 12:58N 59°24' E 018°21'4 9.1
2017-Dec-03 12:30N 59°22' E 018°15'510.8
2017-Dec-03 12:01N 59°20' E 018°05'0 0.0
2017-Dec-03 11:31N 59°20' E 018°05'3 5.7
2017-Dec-03 11:01N 59°20' E 018°10'3 5.7
2017-Dec-03 10:30N 59°20' E 018°05'0 0.0
2017-Dec-03 10:00N 59°20' E 018°05'0 0.0
2017-Dec-03 09:30N 59°20' E 018°05'0 0.0
2017-Dec-03 09:00N 59°20' E 018°05'0 0.0
2017-Dec-03 08:30N 59°20' E 018°05'0 0.0
2017-Dec-03 08:00N 59°20' E 018°05'0 0.0
2017-Dec-03 07:30N 59°20' E 018°05'0 0.0
2017-Dec-03 07:00N 59°20' E 018°05'0 0.0
2017-Dec-03 06:30N 59°20' E 018°05'0 0.0
2017-Dec-03 06:00N 59°20' E 018°05'0 0.0
2017-Dec-03 05:30N 59°20' E 018°05'0 0.0
2017-Dec-03 05:00N 59°20' E 018°05'0 0.0
2017-Dec-03 04:30N 59°20' E 018°05'0 0.0
2017-Dec-03 04:00N 59°20' E 018°05'0 0.0
2017-Dec-03 03:30N 59°20' E 018°05'0 0.0
2017-Dec-03 03:00N 59°20' E 018°05'0 0.0
2017-Dec-03 02:30N 59°20' E 018°05'0 0.0
2017-Dec-03 02:00N 59°20' E 018°05'0 0.0
2017-Dec-03 01:30N 59°20' E 018°05'0 0.0
2017-Dec-03 01:00N 59°20' E 018°05'0 0.0
2017-Dec-03 00:30N 59°20' E 018°05'0 0.0
2017-Dec-03 00:00N 59°20' E 018°05'0 0.0
2017-Dec-02 23:30N 59°20' E 018°05'0 0.0
2017-Dec-02 23:00N 59°20' E 018°05'0 0.0
2017-Dec-02 22:30N 59°20' E 018°05'0 0.7
2017-Dec-02 22:00N 59°20' E 018°05'714.2
2017-Dec-02 21:31N 59°23' E 018°18'2 0.7
2017-Dec-02 18:09N 59°24' E 018°22'1 7.4
2017-Dec-02 17:58N 59°23' E 018°20'714.9
2017-Dec-02 17:30N 59°19' E 018°09'3 5.0
2017-Dec-02 17:01N 59°20' E 018°05'0 0.0
2017-Dec-02 16:31N 59°20' E 018°05'5 9.1
2017-Dec-02 16:01N 59°21' E 018°14'4 6.1
2017-Dec-02 15:18N 59°23' E 018°20'620.5
2017-Dec-02 15:00N 59°20' E 018°11'3 5.9
2017-Dec-02 14:31N 59°20' E 018°05'0 0.3
2017-Dec-02 14:01N 59°20' E 018°05'510.8
2017-Dec-02 13:31N 59°21' E 018°15'4 7.7
2017-Dec-02 12:58N 59°24' E 018°21'4 8.0
2017-Dec-02 12:30N 59°22' E 018°16'612.1
2017-Dec-02 12:00N 59°20' E 018°05'0 0.1
2017-Dec-02 11:30N 59°20' E 018°05'0 0.0
2017-Dec-02 11:00N 59°20' E 018°05'0 0.0
2017-Dec-02 10:30N 59°20' E 018°05'0 0.0
2017-Dec-02 10:00N 59°20' E 018°05'0 0.0
2017-Dec-02 09:30N 59°20' E 018°05'0 0.0
2017-Dec-02 09:00N 59°20' E 018°05'0 0.0
2017-Dec-02 08:30N 59°20' E 018°05'0 0.0
2017-Dec-02 08:00N 59°20' E 018°05'0 0.0
2017-Dec-02 07:30N 59°20' E 018°05'0 0.0
2017-Dec-02 07:00N 59°20' E 018°05'0 0.0
2017-Dec-02 06:30N 59°20' E 018°05'0 0.0
2017-Dec-02 06:00N 59°20' E 018°05'0 0.0
2017-Dec-02 05:30N 59°20' E 018°05'0 0.0
2017-Dec-02 05:00N 59°20' E 018°05'0 0.0
2017-Dec-02 04:30N 59°20' E 018°05'0 0.0
2017-Dec-02 04:00N 59°20' E 018°05'0 0.0
2017-Dec-02 03:30N 59°20' E 018°05'0 0.0
2017-Dec-02 03:00N 59°20' E 018°05'0 0.0
2017-Dec-02 02:30N 59°20' E 018°05'0 0.0
2017-Dec-02 02:00N 59°20' E 018°05'0 0.0
2017-Dec-02 01:30N 59°20' E 018°05'0 0.0
2017-Dec-02 01:00N 59°20' E 018°05'0 0.0
2017-Dec-02 00:30N 59°20' E 018°05'0 0.0
2017-Dec-02 00:00N 59°20' E 018°05'0 0.0
2017-Dec-01 23:30N 59°20' E 018°05'0 0.0
2017-Dec-01 23:00N 59°20' E 018°05'0 0.0
2017-Dec-01 22:30N 59°20' E 018°05'1 2.4
2017-Dec-01 22:00N 59°19' E 018°07'815.2
2017-Dec-01 21:30N 59°23' E 018°20'1 0.2
2017-Dec-01 17:58N 59°23' E 018°20'715.7
2017-Dec-01 17:30N 59°19' E 018°08'2 4.1
2017-Dec-01 17:01N 59°20' E 018°05'  
Track history (hours):
 
Tides and Currents Weather Stations Pressure Air Temp Water Temp Dewpoint Dewpoint Depression Visibility Wind Speed Wind Dir Waves Ship Positions

Cinderella 1

Last reported at 2017-Dec-11 17:01 UTC. Time now 2017-Dec-13 17:01 UTC.
Position N 59°20' E 018°05'.

Length 42 m; draft 1.1 m.

Type: Passenger vessel. MMSI: 265524530.

Date/timePositionNaut miles runAvg speedWind from/ knotsBaromVisibWave heightAir tempDewpointWater temp
2017-Dec-11 17:01N 59°20' E 018°05'0 0.0
2017-Dec-11 16:31N 59°20' E 018°05'0 0.0
2017-Dec-11 16:01N 59°20' E 018°05'0 0.0
2017-Dec-11 15:30N 59°20' E 018°05'0 0.0
2017-Dec-11 15:00N 59°20' E 018°05'0 0.0
2017-Dec-11 14:31N 59°20' E 018°05'0 0.0
2017-Dec-11 14:01N 59°20' E 018°05'0 0.0
2017-Dec-11 13:31N 59°20' E 018°05'0 0.0
2017-Dec-11 13:00N 59°20' E 018°05'0 0.0
2017-Dec-11 12:30N 59°20' E 018°05'0 0.1
2017-Dec-11 12:00N 59°20' E 018°05'0 0.1
2017-Dec-11 11:30N 59°20' E 018°05'0 0.0
2017-Dec-11 11:00N 59°20' E 018°05'0 0.0
2017-Dec-11 10:31N 59°20' E 018°05'0 0.0
2017-Dec-11 10:01N 59°20' E 018°05'0 0.0
2017-Dec-11 09:31N 59°20' E 018°05'0 0.0
2017-Dec-11 09:01N 59°20' E 018°05'0 0.0
2017-Dec-11 08:30N 59°20' E 018°05'0 0.0
2017-Dec-11 08:00N 59°20' E 018°05'0 0.0
2017-Dec-11 07:31N 59°20' E 018°05'0 0.0
2017-Dec-11 07:01N 59°20' E 018°05'0 0.0
2017-Dec-11 06:30N 59°20' E 018°05'0 0.0
2017-Dec-11 06:01N 59°20' E 018°05'0 0.0
2017-Dec-11 05:30N 59°20' E 018°05'0 0.0
2017-Dec-11 05:01N 59°20' E 018°05'0 0.0
2017-Dec-11 04:30N 59°20' E 018°05'0 0.0
2017-Dec-11 04:01N 59°20' E 018°05'0 0.0
2017-Dec-11 03:31N 59°20' E 018°05'0 0.0
2017-Dec-11 03:00N 59°20' E 018°05'0 0.0
2017-Dec-11 02:31N 59°20' E 018°05'0 0.0
2017-Dec-11 02:01N 59°20' E 018°05'0 0.0
2017-Dec-11 01:31N 59°20' E 018°05'0 0.0
2017-Dec-11 01:00N 59°20' E 018°05'0 0.0
2017-Dec-11 00:30N 59°20' E 018°05'0 0.0
2017-Dec-11 00:00N 59°20' E 018°05'0 0.0
2017-Dec-10 23:30N 59°20' E 018°05'0 0.0
2017-Dec-10 23:00N 59°20' E 018°05'0 0.0
2017-Dec-10 22:31N 59°20' E 018°05'0 0.0
2017-Dec-10 22:01N 59°20' E 018°05'0 0.0
2017-Dec-10 21:30N 59°20' E 018°05'0 0.0
2017-Dec-10 21:01N 59°20' E 018°05'0 0.0
2017-Dec-10 20:31N 59°20' E 018°05'0 0.0
2017-Dec-10 20:01N 59°20' E 018°05'0 0.0
2017-Dec-10 19:31N 59°20' E 018°05'0 0.0
2017-Dec-10 19:00N 59°20' E 018°05'0 0.0
2017-Dec-10 18:29N 59°20' E 018°05'2 5.1
2017-Dec-10 18:00N 59°19' E 018°09'2 3.9
2017-Dec-10 17:30N 59°19' E 018°06'1 1.3
2017-Dec-10 17:01N 59°20' E 018°05'0 0.0
2017-Dec-10 16:30N 59°20' E 018°05'510.1
2017-Dec-10 16:00N 59°21' E 018°14'5 8.1
2017-Dec-10 15:27N 59°24' E 018°21'715.9
2017-Dec-10 15:00N 59°20' E 018°11'3 5.9
2017-Dec-10 14:30N 59°20' E 018°05'0 0.2
2017-Dec-10 14:00N 59°20' E 018°05'510.9
2017-Dec-10 13:30N 59°21' E 018°15'3 4.0
2017-Dec-10 12:41N 59°23' E 018°20'316.1
2017-Dec-10 12:31N 59°22' E 018°16'611.8
2017-Dec-10 12:01N 59°20' E 018°05'0 0.1
2017-Dec-10 11:30N 59°20' E 018°05'3 5.8
2017-Dec-10 11:01N 59°20' E 018°10'3 5.7
2017-Dec-10 10:30N 59°20' E 018°05'0 0.0
2017-Dec-10 10:00N 59°20' E 018°05'0 0.0
2017-Dec-10 09:30N 59°20' E 018°05'0 0.0
2017-Dec-10 09:00N 59°20' E 018°05'0 0.0
2017-Dec-10 08:30N 59°20' E 018°05'0 0.0
2017-Dec-10 08:00N 59°20' E 018°05'0 0.0
2017-Dec-10 07:30N 59°20' E 018°05'0 0.0
2017-Dec-10 07:00N 59°20' E 018°05'0 0.0
2017-Dec-10 06:30N 59°20' E 018°05'0 0.0
2017-Dec-10 06:00N 59°20' E 018°05'0 0.0
2017-Dec-10 05:30N 59°20' E 018°05'0 0.0
2017-Dec-10 05:00N 59°20' E 018°05'0 0.0
2017-Dec-10 04:30N 59°20' E 018°05'0 0.0
2017-Dec-10 04:00N 59°20' E 018°05'0 0.0
2017-Dec-10 03:30N 59°20' E 018°05'0 0.0
2017-Dec-10 03:00N 59°20' E 018°05'0 0.0
2017-Dec-10 02:30N 59°20' E 018°05'0 0.0
2017-Dec-10 02:00N 59°20' E 018°05'0 0.0
2017-Dec-10 01:30N 59°20' E 018°05'0 0.0
2017-Dec-10 01:00N 59°20' E 018°05'0 0.0
2017-Dec-10 00:30N 59°20' E 018°05'0 0.0
2017-Dec-10 00:00N 59°20' E 018°05'0 0.0
2017-Dec-09 23:30N 59°20' E 018°05'0 0.0
2017-Dec-09 23:00N 59°20' E 018°05'0 0.0
2017-Dec-09 22:30N 59°20' E 018°05'1 2.3
2017-Dec-09 22:00N 59°19' E 018°06'8 2.0
2017-Dec-09 17:56N 59°23' E 018°20'717.5
2017-Dec-09 17:31N 59°19' E 018°08'2 4.1
2017-Dec-09 17:01N 59°20' E 018°05'0 0.0
2017-Dec-09 16:31N 59°20' E 018°05'4 8.1
2017-Dec-09 16:01N 59°20' E 018°13'5 6.6
2017-Dec-09 15:17N 59°23' E 018°20'622.3
2017-Dec-09 15:00N 59°20' E 018°11'3 5.9
2017-Dec-09 14:30N 59°20' E 018°05'1 2.0
2017-Dec-09 14:00N 59°19' E 018°06'816.1
2017-Dec-09 13:31N 59°23' E 018°20'1 2.4
2017-Dec-09 12:54N 59°24' E 018°21'3 7.8
2017-Dec-09 12:30N 59°22' E 018°16'612.8
2017-Dec-09 12:00N 59°20' E 018°05'0 0.0
2017-Dec-09 11:30N 59°20' E 018°05'0 0.0
2017-Dec-09 11:00N 59°20' E 018°05'0 0.0
2017-Dec-09 10:30N 59°20' E 018°05'0 0.0
2017-Dec-09 10:00N 59°20' E 018°05'0 0.0
2017-Dec-09 09:30N 59°20' E 018°05'0 0.0
2017-Dec-09 09:00N 59°20' E 018°05'0 0.0
2017-Dec-09 08:30N 59°20' E 018°05'0 0.0
2017-Dec-09 08:00N 59°20' E 018°05'0 0.0
2017-Dec-09 07:30N 59°20' E 018°05'0 0.0
2017-Dec-09 07:00N 59°20' E 018°05'0 0.0
2017-Dec-09 06:30N 59°20' E 018°05'0 0.0
2017-Dec-09 06:00N 59°20' E 018°05'0 0.0
2017-Dec-09 05:30N 59°20' E 018°05'0 0.0
2017-Dec-09 05:00N 59°20' E 018°05'0 0.0
2017-Dec-09 04:30N 59°20' E 018°05'0 0.0
2017-Dec-09 04:00N 59°20' E 018°05'0 0.0
2017-Dec-09 03:30N 59°20' E 018°05'0 0.0
2017-Dec-09 03:00N 59°20' E 018°05'0 0.0
2017-Dec-09 02:30N 59°20' E 018°05'0 0.0
2017-Dec-09 02:00N 59°20' E 018°05'0 0.0
2017-Dec-09 01:30N 59°20' E 018°05'0 0.0
2017-Dec-09 01:00N 59°20' E 018°05'0 0.0
2017-Dec-09 00:30N 59°20' E 018°05'0 0.0
2017-Dec-09 00:00N 59°20' E 018°05'0 0.0
2017-Dec-08 23:30N 59°20' E 018°05'0 0.0
2017-Dec-08 23:00N 59°20' E 018°05'0 0.0
2017-Dec-08 22:30N 59°20' E 018°05'2 3.0
2017-Dec-08 22:00N 59°19' E 018°07'815.7
2017-Dec-08 21:28N 59°24' E 018°21'0 0.1
2017-Dec-08 18:17N 59°24' E 018°21'1 3.1
2017-Dec-08 17:57N 59°23' E 018°20'817.2
2017-Dec-08 17:30N 59°19' E 018°08'2 3.7
2017-Dec-08 17:00N 59°20' E 018°05'0 0.0
2017-Dec-08 16:30N 59°20' E 018°05'4 7.9
2017-Dec-08 16:01N 59°20' E 018°12'5 6.8
2017-Dec-08 15:16N 59°23' E 018°20'622.3
2017-Dec-08 15:01N 59°20' E 018°11'3 6.5
2017-Dec-08 14:31N 59°20' E 018°05'0 0.1
2017-Dec-08 14:00N 59°20' E 018°05'4 8.3
2017-Dec-08 13:30N 59°20' E 018°13'610.2
2017-Dec-08 12:56N 59°24' E 018°21'3 6.7
2017-Dec-08 12:30N 59°22' E 018°17'713.4
2017-Dec-08 12:01N 59°20' E 018°05'0 0.1
2017-Dec-08 11:30N 59°20' E 018°05'3 5.1
2017-Dec-08 11:00N 59°19' E 018°10'3 5.1
2017-Dec-08 10:31N 59°20' E 018°05'0 0.0
2017-Dec-08 10:00N 59°20' E 018°05'0 0.0
2017-Dec-08 09:30N 59°20' E 018°05'0 0.0
2017-Dec-08 09:00N 59°20' E 018°05'0 0.0
2017-Dec-08 08:30N 59°20' E 018°05'0 0.0
2017-Dec-08 08:00N 59°20' E 018°05'0 0.0
2017-Dec-08 07:30N 59°20' E 018°05'0 0.1
2017-Dec-08 07:00N 59°20' E 018°05'0 0.1
2017-Dec-08 06:30N 59°20' E 018°05'0 0.0
2017-Dec-08 06:00N 59°20' E 018°05'0 0.0
2017-Dec-08 05:30N 59°20' E 018°05'0 0.0
2017-Dec-08 05:00N 59°20' E 018°05'0 0.0
2017-Dec-08 04:30N 59°20' E 018°05'0 0.0
2017-Dec-08 04:00N 59°20' E 018°05'0 0.0
2017-Dec-08 03:30N 59°20' E 018°05'0 0.0
2017-Dec-08 03:00N 59°20' E 018°05'0 0.0
2017-Dec-08 02:30N 59°20' E 018°05'0 0.0
2017-Dec-08 02:00N 59°20' E 018°05'0 0.0
2017-Dec-08 01:30N 59°20' E 018°05'0 0.0
2017-Dec-08 01:00N 59°20' E 018°05'0 0.0
2017-Dec-08 00:30N 59°20' E 018°05'0 0.0
2017-Dec-08 00:00N 59°20' E 018°05'0 0.0
2017-Dec-07 23:30N 59°20' E 018°05'0 0.0
2017-Dec-07 23:00N 59°20' E 018°05'0 0.0
2017-Dec-07 22:30N 59°20' E 018°05'0 0.9
2017-Dec-07 22:00N 59°20' E 018°05'714.5
2017-Dec-07 21:30N 59°23' E 018°18'2 0.7
2017-Dec-07 18:14N 59°24' E 018°21'1 2.7
2017-Dec-07 17:57N 59°23' E 018°20'716.8
2017-Dec-07 17:30N 59°19' E 018°09'2 4.6
2017-Dec-07 17:00N 59°20' E 018°05'0 0.0
2017-Dec-07 16:30N 59°20' E 018°05'3 5.4
2017-Dec-07 16:01N 59°19' E 018°10'812.0
2017-Dec-07 15:23N 59°24' E 018°21'616.1
2017-Dec-07 15:01N 59°20' E 018°12'4 7.6
2017-Dec-07 14:30N 59°20' E 018°05'0 0.4
2017-Dec-07 14:00N 59°20' E 018°05'510.3
2017-Dec-07 13:31N 59°21' E 018°15'5 8.3
2017-Dec-07 12:57N 59°24' E 018°21'3 7.8
2017-Dec-07 12:30N 59°22' E 018°16'612.3
2017-Dec-07 12:00N 59°20' E 018°05'0 0.0
2017-Dec-07 11:30N 59°20' E 018°05'0 0.0
2017-Dec-07 11:00N 59°20' E 018°05'0 0.0
2017-Dec-07 10:30N 59°20' E 018°05'0 0.0
2017-Dec-07 10:01N 59°20' E 018°05'0 0.0
2017-Dec-07 09:31N 59°20' E 018°05'0 0.0
2017-Dec-07 09:00N 59°20' E 018°05'0 0.0
2017-Dec-07 08:30N 59°20' E 018°05'0 0.0
2017-Dec-07 08:01N 59°20' E 018°05'0 0.0
2017-Dec-07 07:30N 59°20' E 018°05'0 0.0
2017-Dec-07 07:00N 59°20' E 018°05'0 0.0
2017-Dec-07 06:30N 59°20' E 018°05'0 0.0
2017-Dec-07 06:01N 59°20' E 018°05'0 0.0
2017-Dec-07 05:30N 59°20' E 018°05'0 0.0
2017-Dec-07 05:00N 59°20' E 018°05'0 0.0
2017-Dec-07 04:31N 59°20' E 018°05'0 0.0
2017-Dec-07 04:01N 59°20' E 018°05'0 0.0
2017-Dec-07 03:30N 59°20' E 018°05'0 0.0
2017-Dec-07 03:01N 59°20' E 018°05'0 0.0
2017-Dec-07 02:31N 59°20' E 018°05'0 0.0
2017-Dec-07 02:00N 59°20' E 018°05'0 0.0
2017-Dec-07 01:30N 59°20' E 018°05'0 0.0
2017-Dec-07 01:01N 59°20' E 018°05'0 0.0
2017-Dec-07 00:30N 59°20' E 018°05'0 0.0
2017-Dec-07 00:01N 59°20' E 018°05'0 0.0
2017-Dec-06 23:30N 59°20' E 018°05'0 0.0
2017-Dec-06 23:00N 59°20' E 018°05'0 0.0
2017-Dec-06 22:31N 59°20' E 018°05'0 0.4
2017-Dec-06 22:00N 59°20' E 018°05'713.6
2017-Dec-06 21:30N 59°23' E 018°17'  
2017-Dec-04 10:31N 59°20' E 018°05'0 0.0
2017-Dec-04 10:00N 59°20' E 018°05'0 0.0
2017-Dec-04 09:30N 59°20' E 018°05'0 0.0
2017-Dec-04 09:00N 59°20' E 018°05'0 0.0
2017-Dec-04 08:30N 59°20' E 018°05'0 0.0
2017-Dec-04 08:01N 59°20' E 018°05'0 0.0
2017-Dec-04 07:30N 59°20' E 018°05'0 0.0
2017-Dec-04 07:01N 59°20' E 018°05'0 0.0
2017-Dec-04 06:30N 59°20' E 018°05'0 0.0
2017-Dec-04 06:01N 59°20' E 018°05'0 0.0
2017-Dec-04 05:31N 59°20' E 018°05'0 0.0
2017-Dec-04 05:01N 59°20' E 018°05'0 0.0
2017-Dec-04 04:31N 59°20' E 018°05'0 0.0
2017-Dec-04 04:01N 59°20' E 018°05'0 0.0
2017-Dec-04 03:31N 59°20' E 018°05'0 0.0
2017-Dec-04 03:00N 59°20' E 018°05'0 0.0
2017-Dec-04 02:31N 59°20' E 018°05'0 0.0
2017-Dec-04 02:00N 59°20' E 018°05'0 0.0
2017-Dec-04 01:31N 59°20' E 018°05'0 0.0
2017-Dec-04 01:00N 59°20' E 018°05'0 0.0
2017-Dec-04 00:31N 59°20' E 018°05'0 0.0
2017-Dec-04 00:01N 59°20' E 018°05'0 0.0
2017-Dec-03 23:30N 59°20' E 018°05'0 0.0
2017-Dec-03 23:01N 59°20' E 018°05'0 0.0
2017-Dec-03 22:30N 59°20' E 018°05'0 0.0
2017-Dec-03 22:01N 59°20' E 018°05'0 0.0
2017-Dec-03 21:30N 59°20' E 018°05'0 0.0
2017-Dec-03 21:01N 59°20' E 018°05'0 0.0
2017-Dec-03 20:31N 59°20' E 018°05'0 0.0
2017-Dec-03 20:01N 59°20' E 018°05'0 0.0
2017-Dec-03 19:30N 59°20' E 018°05'0 0.0
2017-Dec-03 19:00N 59°20' E 018°05'0 0.0
2017-Dec-03 18:30N 59°20' E 018°05'3 5.8
2017-Dec-03 18:00N 59°20' E 018°10'2 4.5
2017-Dec-03 17:30N 59°19' E 018°06'1 2.2
2017-Dec-03 17:00N 59°20' E 018°05'0 0.0
2017-Dec-03 16:30N 59°20' E 018°05'510.1
2017-Dec-03 16:00N 59°21' E 018°14'5 8.7
2017-Dec-03 15:28N 59°24' E 018°22'715.5
2017-Dec-03 15:01N 59°20' E 018°11'3 6.2
2017-Dec-03 14:30N 59°20' E 018°05'0 0.2
2017-Dec-03 14:00N 59°20' E 018°05'510.6
2017-Dec-03 13:30N 59°21' E 018°15'4 8.2
2017-Dec-03 12:58N 59°24' E 018°21'4 9.1
2017-Dec-03 12:30N 59°22' E 018°15'510.8
2017-Dec-03 12:01N 59°20' E 018°05'0 0.0
2017-Dec-03 11:31N 59°20' E 018°05'3 5.7
2017-Dec-03 11:01N 59°20' E 018°10'3 5.7
2017-Dec-03 10:30N 59°20' E 018°05'0 0.0
2017-Dec-03 10:00N 59°20' E 018°05'0 0.0
2017-Dec-03 09:30N 59°20' E 018°05'0 0.0
2017-Dec-03 09:00N 59°20' E 018°05'0 0.0
2017-Dec-03 08:30N 59°20' E 018°05'0 0.0
2017-Dec-03 08:00N 59°20' E 018°05'0 0.0
2017-Dec-03 07:30N 59°20' E 018°05'0 0.0
2017-Dec-03 07:00N 59°20' E 018°05'0 0.0
2017-Dec-03 06:30N 59°20' E 018°05'0 0.0
2017-Dec-03 06:00N 59°20' E 018°05'0 0.0
2017-Dec-03 05:30N 59°20' E 018°05'0 0.0
2017-Dec-03 05:00N 59°20' E 018°05'0 0.0
2017-Dec-03 04:30N 59°20' E 018°05'0 0.0
2017-Dec-03 04:00N 59°20' E 018°05'0 0.0
2017-Dec-03 03:30N 59°20' E 018°05'0 0.0
2017-Dec-03 03:00N 59°20' E 018°05'0 0.0
2017-Dec-03 02:30N 59°20' E 018°05'0 0.0
2017-Dec-03 02:00N 59°20' E 018°05'0 0.0
2017-Dec-03 01:30N 59°20' E 018°05'0 0.0
2017-Dec-03 01:00N 59°20' E 018°05'0 0.0
2017-Dec-03 00:30N 59°20' E 018°05'0 0.0
2017-Dec-03 00:00N 59°20' E 018°05'0 0.0
2017-Dec-02 23:30N 59°20' E 018°05'0 0.0
2017-Dec-02 23:00N 59°20' E 018°05'0 0.0
2017-Dec-02 22:30N 59°20' E 018°05'0 0.7
2017-Dec-02 22:00N 59°20' E 018°05'714.2
2017-Dec-02 21:31N 59°23' E 018°18'2 0.7
2017-Dec-02 18:09N 59°24' E 018°22'1 7.4
2017-Dec-02 17:58N 59°23' E 018°20'714.9
2017-Dec-02 17:30N 59°19' E 018°09'3 5.0
2017-Dec-02 17:01N 59°20' E 018°05'0 0.0
2017-Dec-02 16:31N 59°20' E 018°05'5 9.1
2017-Dec-02 16:01N 59°21' E 018°14'4 6.1
2017-Dec-02 15:18N 59°23' E 018°20'620.5
2017-Dec-02 15:00N 59°20' E 018°11'3 5.9
2017-Dec-02 14:31N 59°20' E 018°05'0 0.3
2017-Dec-02 14:01N 59°20' E 018°05'510.8
2017-Dec-02 13:31N 59°21' E 018°15'4 7.7
2017-Dec-02 12:58N 59°24' E 018°21'4 8.0
2017-Dec-02 12:30N 59°22' E 018°16'612.1
2017-Dec-02 12:00N 59°20' E 018°05'0 0.1
2017-Dec-02 11:30N 59°20' E 018°05'0 0.0
2017-Dec-02 11:00N 59°20' E 018°05'0 0.0
2017-Dec-02 10:30N 59°20' E 018°05'0 0.0
2017-Dec-02 10:00N 59°20' E 018°05'0 0.0
2017-Dec-02 09:30N 59°20' E 018°05'0 0.0
2017-Dec-02 09:00N 59°20' E 018°05'0 0.0
2017-Dec-02 08:30N 59°20' E 018°05'0 0.0
2017-Dec-02 08:00N 59°20' E 018°05'0 0.0
2017-Dec-02 07:30N 59°20' E 018°05'0 0.0
2017-Dec-02 07:00N 59°20' E 018°05'0 0.0
2017-Dec-02 06:30N 59°20' E 018°05'0 0.0
2017-Dec-02 06:00N 59°20' E 018°05'0 0.0
2017-Dec-02 05:30N 59°20' E 018°05'0 0.0
2017-Dec-02 05:00N 59°20' E 018°05'0 0.0
2017-Dec-02 04:30N 59°20' E 018°05'0 0.0
2017-Dec-02 04:00N 59°20' E 018°05'0 0.0
2017-Dec-02 03:30N 59°20' E 018°05'0 0.0
2017-Dec-02 03:00N 59°20' E 018°05'0 0.0
2017-Dec-02 02:30N 59°20' E 018°05'0 0.0
2017-Dec-02 02:00N 59°20' E 018°05'0 0.0
2017-Dec-02 01:30N 59°20' E 018°05'0 0.0
2017-Dec-02 01:00N 59°20' E 018°05'0 0.0
2017-Dec-02 00:30N 59°20' E 018°05'0 0.0
2017-Dec-02 00:00N 59°20' E 018°05'0 0.0
2017-Dec-01 23:30N 59°20' E 018°05'0 0.0
2017-Dec-01 23:00N 59°20' E 018°05'0 0.0
2017-Dec-01 22:30N 59°20' E 018°05'1 2.4
2017-Dec-01 22:00N 59°19' E 018°07'815.2
2017-Dec-01 21:30N 59°23' E 018°20'1 0.2
2017-Dec-01 17:58N 59°23' E 018°20'715.7
2017-Dec-01 17:30N 59°19' E 018°08'2 4.1
2017-Dec-01 17:01N 59°20' E 018°05'  

Dump ship's entire track history